createdAt,value
2018-06-16T00:03:28.202Z,66.85
2018-06-16T00:08:22.334Z,67.81
2018-06-16T00:13:16.801Z,67.81
2018-06-16T00:18:11.248Z,68.11
2018-06-16T00:23:05.749Z,69.22
2018-06-16T00:28:00.152Z,68.98
2018-06-16T00:32:54.702Z,69.35
2018-06-16T00:37:49.143Z,69.77
2018-06-16T00:42:44.220Z,69.70
2018-06-16T00:47:38.958Z,69.68
2018-06-16T00:52:33.384Z,69.09
2018-06-16T00:57:45.052Z,68.22
2018-06-16T01:02:39.761Z,69.51
2018-06-16T01:07:34.168Z,69.35
2018-06-16T01:12:28.660Z,69.78
2018-06-16T01:17:23.093Z,71.02
2018-06-16T01:22:17.566Z,70.46
2018-06-16T01:27:12.012Z,71.40
2018-06-16T01:32:06.996Z,70.31
2018-06-16T01:37:01.473Z,71.33
2018-06-16T01:41:55.903Z,71.49
2018-06-16T01:46:50.436Z,71.10
2018-06-16T01:51:44.961Z,70.95
2018-06-16T01:56:39.417Z,71.74
2018-06-16T02:01:33.865Z,71.52
2018-06-16T02:06:28.290Z,71.05
2018-06-16T02:11:22.704Z,70.65
2018-06-16T02:16:17.138Z,71.49
2018-06-16T02:21:11.581Z,71.75
2018-06-16T02:26:06.225Z,72.76
2018-06-16T02:31:00.652Z,72.53
2018-06-16T02:35:56.621Z,72.21
2018-06-16T02:40:51.025Z,72.32
2018-06-16T02:45:45.216Z,72.55
2018-06-16T02:50:39.665Z,72.88
2018-06-16T02:55:34.115Z,72.65
2018-06-16T03:00:28.581Z,72.92
2018-06-16T03:05:23.024Z,72.65
2018-06-16T03:10:17.527Z,71.98
2018-06-16T03:15:11.976Z,72.23
2018-06-16T03:20:07.141Z,72.50
2018-06-16T03:25:01.613Z,72.36
2018-06-16T03:29:56.110Z,72.68
2018-06-16T03:34:50.557Z,72.96
2018-06-16T03:39:45.029Z,72.80
2018-06-16T03:44:39.480Z,72.91
2018-06-16T03:49:33.916Z,72.36
2018-06-16T03:54:28.341Z,71.54
2018-06-16T03:59:22.769Z,66.67
2018-06-16T04:04:17.473Z,63.33
2018-06-16T04:09:12.214Z,60.12
2018-06-16T04:14:06.820Z,56.73
2018-06-16T04:19:01.270Z,53.36
2018-06-16T04:23:55.783Z,50.73
2018-06-16T04:28:50.261Z,48.99
2018-06-16T04:33:44.725Z,47.24
2018-06-16T04:38:39.201Z,46.13
2018-06-16T04:43:33.677Z,43.95
2018-06-16T04:48:28.172Z,42.52
2018-06-16T04:53:22.611Z,40.99
2018-06-16T04:58:17.025Z,40.86
2018-06-16T05:03:11.479Z,39.75
2018-06-16T05:08:06.029Z,38.31
2018-06-16T05:13:00.526Z,38.80
2018-06-16T05:17:54.967Z,38.51
2018-06-16T05:22:49.408Z,36.33
2018-06-16T05:27:43.826Z,35.71
2018-06-16T05:32:38.396Z,37.06
2018-06-16T05:37:32.864Z,35.58
2018-06-16T05:42:27.380Z,35.29
2018-06-16T05:47:22.001Z,34.21
2018-06-16T05:52:17.186Z,33.29
2018-06-16T05:57:11.706Z,33.98
2018-06-16T06:02:06.204Z,37.07
2018-06-16T06:07:00.655Z,35.18
2018-06-16T06:11:55.116Z,34.58
2018-06-16T06:16:49.586Z,34.51
2018-06-16T06:21:43.992Z,36.95
2018-06-16T06:26:38.392Z,38.64
2018-06-16T06:31:32.512Z,40.70
2018-06-16T06:36:26.951Z,42.13
2018-06-16T06:41:21.426Z,42.04
2018-06-16T06:46:15.881Z,41.72
2018-06-16T06:51:10.444Z,43.04
2018-06-16T06:56:04.961Z,42.52
2018-06-16T07:00:59.461Z,42.04
2018-06-16T07:05:53.873Z,41.70
2018-06-16T07:10:48.374Z,42.19
2018-06-16T07:15:42.825Z,42.27
2018-06-16T07:20:37.361Z,42.44
2018-06-16T07:25:31.778Z,43.18
2018-06-16T07:30:26.817Z,45.13
2018-06-16T07:35:21.270Z,44.63
2018-06-16T07:40:15.681Z,44.93
2018-06-16T07:45:09.859Z,46.01
2018-06-16T07:50:04.416Z,44.98
2018-06-16T07:55:00.517Z,45.03
2018-06-16T07:59:54.633Z,44.12
2018-06-16T08:04:49.056Z,44.33
2018-06-16T08:14:44.047Z,43.63
2018-06-16T08:19:38.477Z,43.01
2018-06-16T08:24:32.933Z,43.89
2018-06-16T08:29:27.396Z,43.00
2018-06-16T08:34:21.836Z,41.70
2018-06-16T08:39:16.248Z,41.40
2018-06-16T08:44:10.779Z,41.75
2018-06-16T08:49:05.421Z,40.44
2018-06-16T08:53:59.884Z,40.18
2018-06-16T08:58:54.388Z,42.72
2018-06-16T09:03:49.804Z,41.79
2018-06-16T09:08:44.281Z,40.75
2018-06-16T09:13:38.930Z,40.41
2018-06-16T09:18:33.446Z,39.88
2018-06-16T09:23:28.045Z,39.74
2018-06-16T09:28:22.596Z,39.75
2018-06-16T09:33:17.233Z,39.23
2018-06-16T09:38:11.725Z,40.57
2018-06-16T09:43:06.237Z,40.84
2018-06-16T09:48:00.650Z,39.77
2018-06-16T09:52:55.206Z,39.86
2018-06-16T09:57:49.661Z,38.63
2018-06-16T10:02:44.602Z,37.12
2018-06-16T10:07:39.100Z,37.03
2018-06-16T10:12:33.532Z,36.60
2018-06-16T10:17:28.113Z,35.84
2018-06-16T10:22:22.609Z,37.39
2018-06-16T10:27:17.097Z,37.28
2018-06-16T10:32:11.608Z,35.99
2018-06-16T10:37:06.209Z,35.88
2018-06-16T10:42:00.632Z,34.50
2018-06-16T10:46:55.133Z,33.63
2018-06-16T10:51:49.569Z,31.51
2018-06-16T10:56:44.132Z,30.77
2018-06-16T11:02:41.149Z,33.70
2018-06-16T11:07:35.646Z,31.74
2018-06-16T11:12:30.130Z,32.85
2018-06-16T11:17:24.534Z,31.50
2018-06-16T11:22:19.017Z,31.99
2018-06-16T11:27:13.521Z,30.87
2018-06-16T11:32:08.001Z,31.03
2018-06-16T11:37:02.132Z,30.41
2018-06-16T11:41:56.590Z,29.79
2018-06-16T11:46:50.740Z,31.30
2018-06-16T11:51:45.220Z,29.59
2018-06-16T11:56:39.697Z,32.82
2018-06-16T12:01:34.250Z,31.36
2018-06-16T12:06:28.693Z,31.16
2018-06-16T12:11:23.529Z,31.60
2018-06-16T12:16:17.932Z,31.10
2018-06-16T12:21:12.372Z,30.21
2018-06-16T12:26:06.812Z,32.18
2018-06-16T12:31:01.232Z,32.99
2018-06-16T12:35:55.650Z,31.94
2018-06-16T12:40:50.188Z,32.02
2018-06-16T12:45:44.672Z,30.75
2018-06-16T12:50:39.192Z,31.62
2018-06-16T12:55:33.601Z,30.86
2018-06-16T13:00:28.075Z,32.49
2018-06-16T13:05:22.564Z,33.41
2018-06-16T13:10:17.125Z,31.76
2018-06-16T13:15:11.257Z,31.27
2018-06-16T13:20:05.726Z,31.19
2018-06-16T13:25:00.133Z,31.07
2018-06-16T13:29:54.741Z,30.82
2018-06-16T13:34:49.140Z,30.65
2018-06-16T13:39:43.711Z,29.53
2018-06-16T13:44:38.174Z,29.90
2018-06-16T13:49:32.768Z,29.59
2018-06-16T13:54:27.184Z,28.69
2018-06-16T13:59:21.624Z,30.68
2018-06-16T14:04:16.057Z,30.81
2018-06-16T14:09:11.249Z,31.54
2018-06-16T14:14:05.792Z,31.54
2018-06-16T14:19:00.301Z,30.56
2018-06-16T14:23:55.540Z,29.29
2018-06-16T14:28:50.098Z,30.04
2018-06-16T14:33:44.724Z,31.04
2018-06-16T14:38:39.164Z,30.96
2018-06-16T14:43:33.722Z,31.31
2018-06-16T14:48:27.882Z,29.33
2018-06-16T14:53:22.331Z,29.97
2018-06-16T14:58:16.776Z,28.85
2018-06-16T15:03:11.287Z,29.66
2018-06-16T15:08:05.804Z,28.69
2018-06-16T15:13:00.214Z,27.99
2018-06-16T15:17:54.728Z,28.92
2018-06-16T15:22:49.148Z,29.30
2018-06-16T15:27:43.620Z,29.16
2018-06-16T15:32:38.074Z,30.16
2018-06-16T15:37:32.480Z,29.76
2018-06-16T15:42:26.945Z,29.70
2018-06-16T15:47:21.373Z,29.11
2018-06-16T15:52:15.788Z,30.03
2018-06-16T15:57:09.971Z,30.82
2018-06-16T16:02:04.354Z,31.17
2018-06-16T16:06:58.902Z,31.04
2018-06-16T16:11:53.475Z,30.80
2018-06-16T16:16:47.925Z,31.12
2018-06-16T16:21:42.429Z,30.95
2018-06-16T16:26:36.902Z,31.61
2018-06-16T16:31:31.381Z,31.19
2018-06-16T16:36:25.904Z,30.93
2018-06-16T16:41:20.339Z,31.55
2018-06-16T16:46:14.919Z,30.42
2018-06-16T16:51:09.375Z,31.68
2018-06-16T16:56:03.852Z,30.50
2018-06-16T17:00:58.005Z,30.76
2018-06-16T17:05:52.453Z,31.52
2018-06-16T17:10:46.972Z,32.04
2018-06-16T17:15:41.436Z,32.23
2018-06-16T17:20:35.897Z,32.25
2018-06-16T17:25:30.288Z,32.33
2018-06-16T17:30:24.709Z,31.57
2018-06-16T17:35:19.095Z,32.05
2018-06-16T17:40:13.549Z,31.46
2018-06-16T17:45:08.041Z,32.53
2018-06-16T17:50:02.529Z,31.90
2018-06-16T17:54:56.978Z,32.72
2018-06-16T17:59:51.427Z,32.09
2018-06-16T18:04:45.862Z,32.52
2018-06-16T18:09:40.274Z,33.48
2018-06-16T18:14:34.794Z,34.21
2018-06-16T18:19:29.227Z,34.24
2018-06-16T18:24:23.664Z,34.66
2018-06-16T18:29:18.081Z,35.82
2018-06-16T18:34:12.528Z,37.39
2018-06-16T18:39:10.180Z,37.32
2018-06-16T18:44:04.874Z,37.82
2018-06-16T18:48:59.360Z,39.50
2018-06-16T18:53:53.985Z,39.55
2018-06-16T18:58:48.497Z,38.53
2018-06-16T19:03:43.752Z,40.13
2018-06-16T19:08:38.214Z,41.42
2018-06-16T19:13:32.671Z,42.77
2018-06-16T19:18:27.096Z,43.89
2018-06-16T19:23:21.534Z,45.63
2018-06-16T19:28:16.043Z,46.97
2018-06-16T19:33:10.534Z,47.14
2018-06-16T19:38:05.056Z,48.04
2018-06-16T19:42:59.504Z,48.98
2018-06-16T19:47:53.979Z,49.01
2018-06-16T19:52:48.467Z,49.24
2018-06-16T19:57:42.940Z,48.67
2018-06-16T20:02:37.453Z,49.24
2018-06-16T20:07:31.957Z,49.90
2018-06-16T20:12:26.601Z,50.26
2018-06-16T20:17:21.080Z,50.47
2018-06-16T20:22:15.526Z,51.49
2018-06-16T20:27:09.960Z,51.46
2018-06-16T20:32:04.485Z,51.68
2018-06-16T20:36:58.929Z,52.11
2018-06-16T20:41:53.553Z,52.55
2018-06-16T20:46:48.078Z,51.52
2018-06-16T20:51:42.505Z,52.55
2018-06-16T20:56:36.987Z,51.74
2018-06-16T21:01:31.469Z,52.68
2018-06-16T21:06:26.013Z,52.00
2018-06-16T21:11:20.459Z,51.60
2018-06-16T21:16:14.896Z,52.00
2018-06-16T21:21:09.368Z,51.72
2018-06-16T21:26:03.816Z,52.67
2018-06-16T21:30:58.967Z,52.28
2018-06-16T21:35:53.445Z,52.54
2018-06-16T21:40:47.776Z,53.41
2018-06-16T21:45:42.209Z,53.43
2018-06-16T21:50:36.645Z,54.24
2018-06-16T21:55:31.080Z,54.34
2018-06-16T22:00:29.582Z,55.05
2018-06-16T22:05:24.000Z,55.45
2018-06-16T22:10:18.559Z,56.16
2018-06-16T22:15:13.094Z,56.36
2018-06-16T22:20:07.584Z,56.66
2018-06-16T22:25:01.993Z,57.12
2018-06-16T22:29:56.472Z,58.04
2018-06-16T22:34:51.273Z,57.99
2018-06-16T22:39:45.729Z,58.65
2018-06-16T22:44:40.210Z,59.46
2018-06-16T22:49:34.613Z,60.34
2018-06-16T22:54:29.050Z,59.85
2018-06-16T22:59:23.521Z,60.54
2018-06-16T23:04:17.961Z,61.14
2018-06-16T23:09:12.989Z,61.63
2018-06-16T23:14:07.595Z,61.84
2018-06-16T23:19:02.005Z,62.43
2018-06-16T23:24:02.065Z,62.61
2018-06-16T23:28:56.486Z,63.04
2018-06-16T23:33:50.940Z,63.29
2018-06-16T23:38:45.361Z,64.35
2018-06-16T23:43:39.820Z,64.38
2018-06-16T23:48:34.301Z,65.21
2018-06-16T23:53:28.761Z,64.46
2018-06-16T23:58:23.197Z,64.71
